Time;durP1;ratioP1;P1;durP2;ratioP2;P2;SDS_P1;SDS_P2;PMS_P1;PMS_P2;Temp;Humidity;BMP_temperature;BMP_pressure;BME280_temperature;BME280_humidity;BME280_pressure;Samples;Min_cycle;Max_cycle;Signal;HPM_P1;HPM_P2
2022/06/18 00:00:19;;;;;;;25.33;13.70;;;23.00;49.00;;;;;;5009870;28;20068;-71
2022/06/18 00:02:45;;;;;;;21.73;10.95;;;23.00;48.90;;;;;;5008575;28;20125;-71
2022/06/18 00:05:13;;;;;;;21.02;9.25;;;23.00;48.70;;;;;;5010672;28;20041;-71
2022/06/18 00:07:44;;;;;;;16.73;7.90;;;22.90;48.70;;;;;;4992955;28;20084;-71
2022/06/18 00:10:16;;;;;;;18.63;10.00;;;23.00;49.20;;;;;;5026430;28;20034;-71
2022/06/18 00:15:33;;;;;;;12.38;5.68;;;23.00;48.70;;;;;;5010732;28;20060;-71
2022/06/18 00:18:00;;;;;;;14.80;6.07;;;23.00;48.50;;;;;;5010198;28;20030;-71
2022/06/18 00:20:29;;;;;;;14.85;5.55;;;23.00;48.60;;;;;;5007513;28;20026;-71
2022/06/18 00:22:58;;;;;;;10.95;4.65;;;23.00;48.40;;;;;;4993423;28;20033;-71
2022/06/18 00:25:34;;;;;;;9.80;4.53;;;22.90;48.10;;;;;;5010766;28;20026;-71
2022/06/18 00:28:02;;;;;;;10.52;4.03;;;22.90;48.30;;;;;;5010125;28;20030;-71
2022/06/18 00:30:30;;;;;;;9.98;3.95;;;22.90;48.20;;;;;;5009470;28;20076;-70
2022/06/18 00:32:57;;;;;;;12.57;5.18;;;22.90;48.10;;;;;;4977414;28;20434;-71
2022/06/18 00:35:22;;;;;;;9.63;4.30;;;22.90;48.30;;;;;;4993227;28;20541;-71
2022/06/18 00:37:54;;;;;;;8.23;4.07;;;22.90;48.20;;;;;;4994042;28;20057;-71
2022/06/18 00:40:29;;;;;;;8.63;4.13;;;22.90;48.40;;;;;;5013117;28;20038;-71
2022/06/18 00:42:59;;;;;;;7.35;4.00;;;22.90;48.10;;;;;;4996787;28;20052;-71
2022/06/18 00:45:28;;;;;;;8.60;3.65;;;22.90;48.50;;;;;;5012971;28;20030;-70
2022/06/18 00:48:31;;;;;;;8.00;3.80;;;22.90;48.30;;;;;;5012216;28;20022;-71
2022/06/18 00:51:14;;;;;;;6.13;3.35;;;22.90;48.50;;;;;;5012608;28;20025;-71
2022/06/18 00:53:46;;;;;;;6.18;3.50;;;22.90;48.40;;;;;;5011990;28;20109;-71
2022/06/18 00:56:39;;;;;;;9.98;3.65;;;22.90;48.30;;;;;;4996537;28;20029;-71
2022/06/18 00:59:31;;;;;;;8.07;3.60;;;22.90;48.30;;;;;;5013365;28;20118;-71
2022/06/18 01:01:58;;;;;;;6.28;3.25;;;22.90;48.20;;;;;;4983609;28;20049;-71
2022/06/18 01:04:27;;;;;;;7.28;3.72;;;22.90;48.20;;;;;;5012362;28;20026;-71
2022/06/18 01:06:57;;;;;;;;;;;22.90;48.30;;;;;;5012619;28;20030;-70
2022/06/18 01:09:23;;;;;;;8.45;3.38;;;22.90;48.80;;;;;;5012636;28;20374;-71
2022/06/18 01:11:50;;;;;;;5.25;3.25;;;22.90;48.20;;;;;;5011028;28;20088;-71
2022/06/18 01:14:18;;;;;;;6.28;3.28;;;22.90;48.80;;;;;;4979818;28;20030;-71
2022/06/18 01:16:45;;;;;;;6.47;3.58;;;22.80;48.50;;;;;;5012347;28;20042;-71
2022/06/18 01:19:29;;;;;;;7.22;3.30;;;22.90;48.50;;;;;;5011384;28;20026;-71
2022/06/18 01:22:17;;;;;;;6.15;2.88;;;22.80;48.70;;;;;;5012182;28;20517;-71
2022/06/18 01:24:44;;;;;;;5.82;3.17;;;22.90;49.00;;;;;;4979916;28;20100;-71
2022/06/18 01:27:11;;;;;;;5.20;3.10;;;22.80;48.90;;;;;;5010360;28;20041;-71
2022/06/18 01:29:39;;;;;;;5.65;3.40;;;22.80;48.50;;;;;;4994547;28;20117;-71
2022/06/18 01:32:08;;;;;;;6.78;3.45;;;22.90;48.10;;;;;;4995775;28;20034;-71
2022/06/18 01:34:36;;;;;;;6.25;3.38;;;22.80;48.20;;;;;;4995632;28;20514;-71
2022/06/18 01:37:03;;;;;;;6.88;3.53;;;22.80;48.30;;;;;;5012820;28;20117;-71
2022/06/18 01:39:34;;;;;;;6.80;3.53;;;22.90;49.00;;;;;;5010748;28;20041;-71
2022/06/18 01:42:07;;;;;;;7.60;2.97;;;22.90;48.70;;;;;;5010923;28;20030;-71
2022/06/18 01:44:37;;;;;;;4.25;2.80;;;22.80;48.90;;;;;;5011187;28;20057;-71
2022/06/18 01:47:18;;;;;;;8.55;3.33;;;22.80;48.90;;;;;;5011636;28;20034;-71
2022/06/18 01:50:01;;;;;;;4.68;3.20;;;22.80;48.30;;;;;;4994937;28;20117;-71
2022/06/18 01:52:35;;;;;;;6.55;3.13;;;22.80;48.10;;;;;;4995556;28;20026;-70
2022/06/18 01:55:11;;;;;;;8.48;3.63;;;22.80;48.50;;;;;;4992622;28;20030;-71
2022/06/18 01:57:44;;;;;;;5.60;3.08;;;22.80;48.70;;;;;;5006131;28;20458;-70
2022/06/18 02:00:16;;;;;;;6.65;3.60;;;22.80;48.80;;;;;;5010861;28;20048;-71
2022/06/18 02:02:49;;;;;;;6.20;3.38;;;22.80;48.40;;;;;;4996040;28;20112;-70
2022/06/18 02:05:16;;;;;;;5.80;3.10;;;22.80;48.90;;;;;;4995206;28;20030;-70
2022/06/18 02:07:44;;;;;;;5.65;2.95;;;22.80;48.80;;;;;;4994358;28;20052;-70
2022/06/18 02:10:19;;;;;;;7.70;3.35;;;22.80;48.90;;;;;;5010728;28;20022;-70
2022/06/18 02:12:47;;;;;;;5.97;3.53;;;22.80;48.90;;;;;;5011022;28;20104;-70
2022/06/18 02:15:21;;;;;;;4.18;3.17;;;22.80;48.10;;;;;;5012730;28;20034;-70
2022/06/18 02:17:48;;;;;;;4.50;3.00;;;22.80;48.10;;;;;;5010206;28;20505;-70
2022/06/18 02:20:19;;;;;;;6.50;3.35;;;22.80;49.10;;;;;;4995201;28;20044;-70
2022/06/18 02:22:49;;;;;;;5.32;3.03;;;22.80;48.60;;;;;;4995013;28;20383;-70
2022/06/18 02:25:17;;;;;;;5.88;3.17;;;22.80;48.80;;;;;;5012520;28;20030;-71
2022/06/18 02:27:44;;;;;;;8.15;3.28;;;22.80;48.90;;;;;;5009239;28;20034;-70
2022/06/18 02:30:20;;;;;;;7.07;3.58;;;22.70;48.40;;;;;;4995003;28;20062;-71
2022/06/18 02:33:09;;;;;;;6.70;3.28;;;22.80;48.20;;;;;;5010786;28;20497;-71
2022/06/18 02:35:36;;;;;;;8.63;3.45;;;22.80;48.60;;;;;;4995122;28;20462;-70
2022/06/18 02:38:18;;;;;;;5.55;3.05;;;22.70;48.80;;;;;;4993613;28;20355;-71
2022/06/18 02:40:44;;;;;;;5.78;3.05;;;22.70;48.10;;;;;;5012253;28;20040;-70
2022/06/18 02:43:11;;;;;;;6.10;3.20;;;22.70;49.10;;;;;;5012282;28;20042;-71
2022/06/18 02:45:38;;;;;;;7.60;3.00;;;22.70;48.90;;;;;;4993413;28;20045;-70
2022/06/18 02:48:07;;;;;;;4.65;2.90;;;22.70;48.90;;;;;;4993170;28;20356;-70
2022/06/18 02:50:37;;;;;;;7.73;3.23;;;22.70;48.90;;;;;;5007363;28;20372;-71
2022/06/18 02:53:03;;;;;;;;;;;22.70;48.80;;;;;;5008979;28;20026;-70
2022/06/18 02:55:37;;;;;;;3.97;2.78;;;22.70;48.80;;;;;;5010604;28;20012;-71
2022/06/18 02:58:14;;;;;;;3.90;2.65;;;22.70;48.70;;;;;;5009600;28;20109;-70
2022/06/18 03:00:44;;;;;;;6.15;2.78;;;22.70;48.50;;;;;;5010653;28;20057;-70
2022/06/18 03:03:13;;;;;;;4.50;2.57;;;22.70;48.70;;;;;;4991919;28;20477;-71
2022/06/18 03:05:39;;;;;;;5.13;2.70;;;22.70;48.50;;;;;;5010464;28;20110;-71
2022/06/18 03:08:05;;;;;;;6.93;2.67;;;22.70;48.20;;;;;;4993391;28;20033;-70
2022/06/18 03:13:18;;;;;;;4.53;2.72;;;22.70;48.80;;;;;;5010532;28;20034;-71
2022/06/18 03:15:48;;;;;;;5.88;2.70;;;22.70;48.90;;;;;;4994137;28;20036;-71
2022/06/18 03:18:16;;;;;;;5.43;2.33;;;22.70;48.80;;;;;;4993318;28;20530;-71
2022/06/18 03:20:55;;;;;;;4.07;2.00;;;22.70;48.80;;;;;;5009314;28;20042;-71
2022/06/18 03:23:23;;;;;;;4.93;2.40;;;22.70;48.70;;;;;;4993988;28;20037;-71
2022/06/18 03:25:51;;;;;;;4.35;2.42;;;22.70;48.80;;;;;;4993650;28;20029;-71
2022/06/18 03:28:18;;;;;;;4.55;2.35;;;22.70;49.00;;;;;;4993247;28;20030;-71
2022/06/18 03:30:44;;;;;;;3.22;2.17;;;22.70;49.10;;;;;;5009820;28;20033;-71
2022/06/18 03:33:12;;;;;;;4.82;2.17;;;22.70;48.60;;;;;;5010035;28;20033;-71
2022/06/18 03:35:43;;;;;;;4.07;2.10;;;22.70;48.90;;;;;;5009924;28;20037;-70
2022/06/18 03:38:11;;;;;;;6.90;2.17;;;22.70;49.00;;;;;;5007505;28;20026;-71
2022/06/18 03:40:37;;;;;;;5.43;2.50;;;22.70;48.80;;;;;;5009832;28;20037;-71
2022/06/18 03:43:03;;;;;;;5.97;2.03;;;22.70;48.90;;;;;;4993501;28;20034;-71
2022/06/18 03:45:35;;;;;;;4.75;2.35;;;22.70;48.70;;;;;;4993499;28;20084;-71
2022/06/18 03:48:01;;;;;;;4.22;2.45;;;22.60;48.60;;;;;;5008989;28;20511;-71
2022/06/18 03:50:28;;;;;;;6.10;2.40;;;22.60;48.90;;;;;;5010013;28;20025;-71
2022/06/18 03:52:54;;;;;;;3.42;2.03;;;22.60;48.80;;;;;;5009942;28;20037;-71
2022/06/18 03:55:20;;;;;;;6.28;2.55;;;22.60;48.50;;;;;;5008490;28;20541;-71
2022/06/18 03:57:46;;;;;;;7.93;2.42;;;22.70;48.60;;;;;;4992576;28;20026;-71
2022/06/18 04:00:19;;;;;;;8.10;2.80;;;22.70;48.80;;;;;;4977392;28;20507;-71
2022/06/18 04:02:50;;;;;;;10.80;2.90;;;22.70;48.00;;;;;;5009724;28;20034;-71
2022/06/18 04:05:17;;;;;;;6.95;3.28;;;22.70;48.10;;;;;;5009830;28;20057;-71
2022/06/18 04:07:43;;;;;;;8.57;3.42;;;22.70;48.60;;;;;;5008753;28;20062;-71
2022/06/18 04:10:17;;;;;;;12.25;4.32;;;22.70;48.90;;;;;;5011019;28;20053;-71
2022/06/18 04:12:45;;;;;;;11.88;5.05;;;22.70;48.90;;;;;;5007887;28;20510;-71
2022/06/18 04:15:21;;;;;;;9.02;4.13;;;22.70;48.80;;;;;;5006153;28;20022;-71
2022/06/18 04:18:01;;;;;;;11.05;3.50;;;22.60;48.70;;;;;;4998454;28;20034;-71
2022/06/18 04:20:37;;;;;;;6.93;3.28;;;22.70;48.90;;;;;;4997373;28;20545;-71
2022/06/18 04:23:06;;;;;;;9.43;3.25;;;22.60;49.30;;;;;;5013247;28;20101;-71
2022/06/18 04:25:37;;;;;;;5.90;3.15;;;22.60;49.00;;;;;;5013267;28;20084;-71
2022/06/18 04:28:03;;;;;;;7.72;3.05;;;22.60;49.00;;;;;;5012570;28;20479;-71
2022/06/18 04:30:32;;;;;;;6.05;3.30;;;22.60;49.00;;;;;;5012540;28;20034;-71
2022/06/18 04:33:09;;;;;;;7.05;3.17;;;22.60;49.10;;;;;;4998250;28;20030;-71
2022/06/18 04:35:41;;;;;;;8.27;3.28;;;22.60;49.30;;;;;;5012939;28;20026;-71
2022/06/18 04:38:11;;;;;;;7.93;3.05;;;22.60;49.20;;;;;;4996258;28;20034;-72
2022/06/18 04:40:59;;;;;;;9.20;3.55;;;22.60;49.00;;;;;;5014108;28;20029;-71
2022/06/18 04:43:40;;;;;;;8.00;3.40;;;22.60;48.50;;;;;;5013230;28;20113;-71
2022/06/18 04:46:08;;;;;;;9.95;4.13;;;22.60;49.20;;;;;;4996408;28;20041;-71
2022/06/18 04:48:34;;;;;;;9.10;4.40;;;22.60;49.10;;;;;;5011583;28;20030;-71
2022/06/18 04:51:01;;;;;;;6.75;3.58;;;22.60;49.10;;;;;;4996026;28;20050;-71
2022/06/18 04:53:27;;;;;;;8.25;3.80;;;22.60;49.40;;;;;;5013148;28;20026;-71
2022/06/18 04:56:02;;;;;;;6.22;3.40;;;22.70;49.50;;;;;;5012715;28;20152;-71
2022/06/18 04:58:28;;;;;;;7.50;3.33;;;22.60;49.50;;;;;;4995947;28;20033;-71
2022/06/18 05:00:57;;;;;;;8.18;3.72;;;22.60;49.60;;;;;;4996511;28;20025;-72
2022/06/18 05:03:34;;;;;;;7.97;3.30;;;22.70;49.50;;;;;;4996600;28;20175;-72
2022/06/18 05:06:23;;;;;;;6.22;3.63;;;22.70;49.20;;;;;;4995247;28;20046;-71
2022/06/18 05:09:03;;;;;;;7.22;3.95;;;22.70;49.20;;;;;;4995747;28;20152;-71
2022/06/18 05:12:05;;;;;;;8.13;3.58;;;22.70;49.20;;;;;;5011052;28;20030;-72
2022/06/18 05:14:46;;;;;;;7.05;3.50;;;22.70;48.70;;;;;;4996221;28;20069;-72
2022/06/18 05:17:23;;;;;;;7.78;3.65;;;22.70;48.90;;;;;;5011743;28;20037;-72
2022/06/18 05:19:51;;;;;;;9.65;3.53;;;22.70;48.90;;;;;;4980613;28;20438;-72
2022/06/18 05:22:18;;;;;;;6.95;3.72;;;22.70;49.20;;;;;;5009923;28;20093;-72
2022/06/18 05:24:45;;;;;;;7.80;3.50;;;22.70;49.10;;;;;;4994591;28;20462;-72
2022/06/18 05:27:31;;;;;;;5.60;2.83;;;22.70;49.00;;;;;;4995388;28;20030;-72
2022/06/18 05:29:58;;;;;;;5.78;2.90;;;22.70;48.80;;;;;;5012376;28;20030;-71
2022/06/18 05:32:35;;;;;;;7.40;2.50;;;22.70;48.70;;;;;;5013008;28;20034;-72
2022/06/18 05:35:01;;;;;;;5.72;2.40;;;22.70;48.70;;;;;;5012213;28;20113;-72
2022/06/18 05:37:29;;;;;;;9.48;2.55;;;22.70;48.50;;;;;;5010912;28;20034;-72
2022/06/18 05:39:56;;;;;;;4.90;2.20;;;22.80;48.40;;;;;;4995011;28;20029;-72
2022/06/18 05:42:22;;;;;;;4.90;2.35;;;22.80;48.10;;;;;;5011597;28;20029;-72
2022/06/18 05:44:49;;;;;;;4.15;1.75;;;22.80;47.80;;;;;;5012719;28;20109;-72
2022/06/18 05:47:26;;;;;;;7.10;2.03;;;22.80;48.10;;;;;;5011285;28;20493;-72
2022/06/18 05:49:56;;;;;;;5.50;2.20;;;22.80;48.10;;;;;;5012014;28;20044;-72
2022/06/18 05:52:23;;;;;;;7.78;2.35;;;22.80;48.10;;;;;;4994999;28;20447;-72
2022/06/18 05:54:52;;;;;;;4.40;2.15;;;22.80;48.20;;;;;;5011571;28;20066;-72
2022/06/18 05:57:30;;;;;;;8.48;2.15;;;22.80;48.90;;;;;;4993490;28;20038;-72
2022/06/18 06:00:14;;;;;;;7.20;2.25;;;22.80;48.10;;;;;;5011324;28;20049;-72
2022/06/18 06:02:40;;;;;;;7.18;2.03;;;22.80;48.20;;;;;;5012425;28;20033;-72
2022/06/18 06:05:07;;;;;;;4.03;1.80;;;22.80;48.10;;;;;;5012683;28;20044;-72
2022/06/18 06:07:33;;;;;;;6.18;2.00;;;22.90;47.90;;;;;;5011637;28;20042;-72
2022/06/18 06:12:43;;;;;;;5.53;2.42;;;23.00;48.00;;;;;;5011067;28;20065;-72
2022/06/18 06:15:10;;;;;;;3.95;2.10;;;23.00;47.90;;;;;;5009991;28;20068;-72
2022/06/18 06:17:36;;;;;;;6.18;2.67;;;23.00;48.00;;;;;;4993834;28;20037;-72
2022/06/18 06:20:04;;;;;;;10.23;2.30;;;23.00;47.90;;;;;;5012346;28;20030;-72
2022/06/18 06:22:30;;;;;;;9.18;2.53;;;23.00;47.90;;;;;;5011039;28;20042;-72
2022/06/18 06:24:56;;;;;;;5.47;2.67;;;23.00;48.20;;;;;;5012409;28;20030;-71
2022/06/18 06:27:22;;;;;;;5.30;2.20;;;23.00;48.20;;;;;;5010159;28;20050;-71
2022/06/18 06:29:47;;;;;;;5.25;2.15;;;23.00;48.20;;;;;;5012253;28;20057;-72
2022/06/18 06:32:13;;;;;;;4.38;2.20;;;23.00;48.40;;;;;;5009739;28;20029;-71
2022/06/18 06:34:39;;;;;;;4.03;2.35;;;23.00;48.40;;;;;;5010655;28;20375;-71
2022/06/18 06:37:05;;;;;;;5.35;2.80;;;23.00;48.30;;;;;;5011878;28;20041;-71
2022/06/18 06:39:31;;;;;;;8.13;3.28;;;23.00;48.30;;;;;;5011376;28;20030;-71
2022/06/18 06:41:56;;;;;;;9.27;3.30;;;23.00;48.40;;;;;;5010665;28;20057;-71
2022/06/18 06:44:22;;;;;;;5.00;2.72;;;23.10;48.70;;;;;;5011895;28;20559;-71
2022/06/18 06:46:48;;;;;;;5.47;2.42;;;23.00;48.20;;;;;;4994333;28;20037;-71
2022/06/18 06:49:14;;;;;;;6.47;2.50;;;23.00;48.70;;;;;;5007802;28;20022;-72
2022/06/18 06:51:40;;;;;;;8.80;3.10;;;23.00;48.80;;;;;;5011726;28;20022;-71
2022/06/18 06:54:09;;;;;;;10.70;2.70;;;23.00;49.10;;;;;;5012025;28;20458;-71
2022/06/18 06:59:19;;;;;;;8.05;2.47;;;23.00;49.00;;;;;;5009996;28;20117;-71
2022/06/18 07:01:45;;;;;;;6.78;2.70;;;23.00;49.00;;;;;;5011628;28;20121;-71
2022/06/18 07:04:12;;;;;;;8.80;2.83;;;23.00;48.40;;;;;;5010481;28;20045;-71
2022/06/18 07:06:38;;;;;;;10.65;3.28;;;23.00;49.20;;;;;;5009567;28;20025;-69
2022/06/18 07:09:06;;;;;;;5.25;2.80;;;23.00;49.40;;;;;;5010500;28;20029;-71
2022/06/18 07:11:33;;;;;;;6.22;2.63;;;23.10;49.20;;;;;;5011708;28;20037;-72
2022/06/18 07:13:59;;;;;;;6.63;3.08;;;23.10;49.20;;;;;;5011429;28;20490;-71
2022/06/18 07:16:25;;;;;;;7.55;3.05;;;23.10;49.30;;;;;;5011716;28;20032;-71
2022/06/18 07:18:53;;;;;;;4.47;2.67;;;23.10;49.20;;;;;;5011025;28;20105;-71
2022/06/18 07:21:21;;;;;;;8.23;2.75;;;23.20;49.10;;;;;;5011953;28;20029;-70
2022/06/18 07:23:47;;;;;;;7.85;2.83;;;23.20;49.10;;;;;;5011495;28;20049;-72
2022/06/18 07:26:16;;;;;;;10.70;2.90;;;23.20;48.60;;;;;;5009314;28;20038;-72
2022/06/18 07:28:43;;;;;;;6.40;3.33;;;23.20;48.60;;;;;;5009979;28;20036;-71
2022/06/18 07:31:19;;;;;;;7.88;3.00;;;23.20;48.70;;;;;;5011358;28;20061;-71
2022/06/18 07:33:46;;;;;;;5.95;2.50;;;23.20;48.80;;;;;;5010394;28;20036;-70
2022/06/18 07:36:12;;;;;;;6.05;2.70;;;23.20;48.40;;;;;;5010654;28;20042;-71
2022/06/18 07:38:38;;;;;;;4.93;2.80;;;23.30;48.30;;;;;;4993307;28;20030;-70
2022/06/18 07:41:05;;;;;;;5.22;2.78;;;23.20;48.50;;;;;;5026806;28;20038;-72
2022/06/18 07:43:37;;;;;;;5.55;2.38;;;23.30;48.50;;;;;;5009216;28;20440;-72
2022/06/18 07:46:05;;;;;;;4.47;2.30;;;23.30;48.60;;;;;;5010034;28;20033;-72
2022/06/18 07:48:31;;;;;;;3.70;2.30;;;23.30;48.00;;;;;;5029854;28;20112;-72
2022/06/18 07:50:57;;;;;;;7.60;2.85;;;23.30;48.60;;;;;;5015284;28;20026;-72
2022/06/18 07:53:25;;;;;;;9.13;3.47;;;23.30;48.80;;;;;;4997779;28;20132;-70
2022/06/18 07:55:52;;;;;;;6.10;2.28;;;23.20;49.00;;;;;;4998070;28;20060;-72
2022/06/18 07:58:18;;;;;;;4.45;2.10;;;23.30;47.70;;;;;;5014384;28;20482;-70
2022/06/18 08:00:44;;;;;;;4.22;2.17;;;23.40;47.10;;;;;;5011500;28;20065;-71
2022/06/18 08:03:12;;;;;;;5.75;2.25;;;23.40;47.00;;;;;;5014779;28;20033;-71
2022/06/18 08:05:38;;;;;;;7.05;2.25;;;23.40;47.00;;;;;;5015054;28;20125;-71
2022/06/18 08:08:05;;;;;;;3.10;2.00;;;23.40;48.00;;;;;;5013019;28;20108;-71
2022/06/18 08:10:36;;;;;;;5.30;2.15;;;23.40;48.50;;;;;;4997738;28;20026;-72
2022/06/18 08:13:03;;;;;;;10.90;2.35;;;23.40;48.70;;;;;;5014707;28;20426;-71
2022/06/18 08:15:30;;;;;;;7.80;2.30;;;23.40;48.50;;;;;;5015300;28;20096;-71
2022/06/18 08:17:56;;;;;;;4.65;2.08;;;23.40;48.50;;;;;;5011592;28;20121;-71
2022/06/18 08:20:23;;;;;;;6.57;2.10;;;23.40;47.90;;;;;;5014886;28;20041;-71
2022/06/18 08:22:55;;;;;;;5.78;2.72;;;23.40;48.80;;;;;;5014664;28;20029;-71
2022/06/18 08:25:24;;;;;;;4.75;2.35;;;23.40;48.20;;;;;;5013454;28;20057;-70
2022/06/18 08:27:51;;;;;;;7.57;2.40;;;23.40;49.00;;;;;;5013702;28;20026;-70
2022/06/18 08:30:17;;;;;;;8.05;2.20;;;23.50;49.10;;;;;;5014752;28;20437;-71
2022/06/18 08:32:44;;;;;;;6.70;2.17;;;23.40;48.50;;;;;;5012843;28;20652;-71
2022/06/18 08:35:11;;;;;;;3.22;2.00;;;23.50;48.30;;;;;;4994981;28;20030;-71
2022/06/18 08:37:38;;;;;;;8.20;1.90;;;23.50;48.40;;;;;;4995152;28;20036;-70
2022/06/18 08:40:34;;;;;;;4.93;2.40;;;23.50;48.50;;;;;;5014261;28;20108;-71
2022/06/18 08:43:21;;;;;;;7.53;2.80;;;23.50;49.10;;;;;;5013151;28;20033;-71
2022/06/18 08:46:06;;;;;;;3.80;2.20;;;23.50;49.00;;;;;;5014055;28;20034;-71
2022/06/18 08:48:48;;;;;;;5.72;2.20;;;23.50;48.80;;;;;;5012204;28;20025;-71
2022/06/18 08:51:35;;;;;;;5.80;2.15;;;23.50;48.90;;;;;;5012145;28;20038;-72
2022/06/18 08:54:06;;;;;;;5.10;1.83;;;23.60;49.10;;;;;;5011714;28;20489;-71
2022/06/18 08:56:53;;;;;;;5.68;1.88;;;23.70;48.30;;;;;;5014160;28;20026;-71
2022/06/18 08:59:31;;;;;;;5.90;2.10;;;23.80;48.00;;;;;;5012108;28;20080;-71
2022/06/18 09:02:24;;;;;;;8.75;2.00;;;23.90;48.30;;;;;;5014240;28;20521;-72
2022/06/18 09:05:15;;;;;;;3.17;1.80;;;23.80;49.00;;;;;;4994268;28;20063;-71
2022/06/18 09:08:23;;;;;;;9.18;2.20;;;23.80;49.50;;;;;;5011436;28;20026;-72
2022/06/18 09:11:00;;;;;;;4.75;2.08;;;23.80;49.60;;;;;;5012645;28;20410;-71
2022/06/18 09:13:36;;;;;;;6.28;2.33;;;23.90;49.60;;;;;;5006321;28;20049;-71
2022/06/18 09:16:06;;;;;;;10.48;2.00;;;23.90;50.30;;;;;;5013918;28;20522;-71
2022/06/18 09:18:36;;;;;;;9.20;2.30;;;23.90;49.90;;;;;;4995071;28;20034;-71
2022/06/18 09:21:14;;;;;;;9.82;2.22;;;24.00;49.60;;;;;;5025034;28;20030;-73
2022/06/18 09:23:52;;;;;;;8.35;2.50;;;24.20;48.80;;;;;;5011668;28;20088;-71
2022/06/18 09:26:31;;;;;;;7.63;2.40;;;24.40;49.50;;;;;;5012282;28;20026;-72
2022/06/18 09:29:13;;;;;;;8.68;3.15;;;24.50;48.90;;;;;;5012851;28;20122;-72
2022/06/18 09:31:48;;;;;;;10.35;5.65;;;24.60;48.60;;;;;;5011516;28;20041;-72
2022/06/18 09:34:27;;;;;;;3.88;2.05;;;24.60;48.40;;;;;;5028668;28;20026;-73
2022/06/18 09:36:58;;;;;;;6.13;2.35;;;24.60;47.80;;;;;;5012627;28;20026;-72
2022/06/18 09:39:31;;;;;;;6.10;2.50;;;24.70;48.00;;;;;;5027562;28;20076;-72
2022/06/18 09:42:11;;;;;;;10.27;3.00;;;24.50;48.20;;;;;;5009842;28;20321;-72
2022/06/18 09:45:09;;;;;;;7.93;2.50;;;24.60;49.10;;;;;;5028062;28;20044;-73
2022/06/18 09:47:47;;;;;;;7.55;2.58;;;24.70;48.40;;;;;;4999620;28;20028;-71
2022/06/18 09:50:25;;;;;;;10.93;2.65;;;24.80;48.30;;;;;;5013389;28;20168;-72
2022/06/18 09:53:01;;;;;;;8.98;2.10;;;24.90;48.40;;;;;;5011664;28;20030;-74
2022/06/18 09:55:41;;;;;;;6.53;2.28;;;25.00;48.10;;;;;;5012922;28;20034;-72
2022/06/18 09:58:15;;;;;;;11.60;2.70;;;25.30;47.40;;;;;;5010610;28;20030;-73
2022/06/18 10:00:42;;;;;;;5.38;1.95;;;25.10;48.10;;;;;;5012731;28;20033;-74
2022/06/18 10:09:07;;;;;;;7.68;2.33;;;25.10;48.80;;;;;;5010004;28;20114;-74
2022/06/18 10:11:33;;;;;;;5.18;2.40;;;25.20;49.00;;;;;;5009372;28;20022;-73
2022/06/18 10:14:10;;;;;;;10.35;4.38;;;25.20;49.40;;;;;;5005762;28;20108;-69
2022/06/18 10:17:07;;;;;;;31.10;24.20;;;25.30;48.70;;;;;;5010281;28;20038;-68
2022/06/18 10:19:50;;;;;;;29.10;21.38;;;25.40;48.10;;;;;;5005923;28;20489;-71
2022/06/18 10:22:37;;;;;;;27.08;14.48;;;25.40;48.60;;;;;;5004272;28;20534;-72
2022/06/18 10:25:27;;;;;;;25.02;13.73;;;25.30;51.10;;;;;;5007763;28;20038;-71
2022/06/18 10:28:08;;;;;;;28.45;15.45;;;25.10;54.10;;;;;;5010007;28;20444;-72
2022/06/18 10:31:06;;;;;;;18.92;12.50;;;24.90;54.90;;;;;;5004530;28;20054;-72
2022/06/18 10:33:56;;;;;;;21.52;11.57;;;24.70;54.60;;;;;;5011882;28;20053;-71
2022/06/18 10:36:51;;;;;;;22.10;11.95;;;24.60;54.70;;;;;;5011356;28;20037;-72
2022/06/18 10:39:40;;;;;;;20.20;11.80;;;24.60;54.50;;;;;;4964738;28;20414;-72
2022/06/18 10:42:13;;;;;;;18.50;11.65;;;24.50;54.80;;;;;;5011929;28;20387;-72
2022/06/18 10:45:03;;;;;;;18.35;8.95;;;24.50;54.10;;;;;;5004607;28;20094;-71
2022/06/18 10:47:40;;;;;;;17.42;9.38;;;24.50;54.10;;;;;;5003429;28;20057;-71
2022/06/18 10:50:16;;;;;;;17.25;10.07;;;24.40;54.60;;;;;;5007276;28;20407;-72
2022/06/18 10:52:43;;;;;;;30.25;11.10;;;24.40;57.70;;;;;;5018786;28;20032;-72
2022/06/18 10:55:19;;;;;;;32.45;11.73;;;24.40;61.40;;;;;;5010337;28;20506;-72
2022/06/18 10:57:45;;;;;;;29.33;9.75;;;24.30;62.40;;;;;;5007908;28;20037;-72
2022/06/18 11:00:28;;;;;;;20.70;8.60;;;24.30;59.10;;;;;;5007216;28;20495;-71
2022/06/18 11:02:57;;;;;;;17.80;8.75;;;24.30;56.90;;;;;;5008329;28;20040;-71
2022/06/18 11:05:33;;;;;;;19.08;9.02;;;24.30;56.60;;;;;;5006711;28;20037;-71
2022/06/18 11:08:03;;;;;;;27.10;9.60;;;24.20;57.00;;;;;;4993121;28;20124;-71
2022/06/18 11:10:34;;;;;;;19.75;8.55;;;24.20;56.90;;;;;;5006908;28;20091;-71
2022/06/18 11:13:02;;;;;;;28.33;8.77;;;24.20;57.10;;;;;;4993657;28;20602;-69
2022/06/18 11:15:33;;;;;;;15.07;6.82;;;24.20;57.10;;;;;;5016566;28;20056;-72
2022/06/18 11:18:01;;;;;;;17.88;7.45;;;24.30;55.20;;;;;;5024838;28;20036;-71
2022/06/18 11:20:31;;;;;;;16.95;7.63;;;24.30;56.10;;;;;;4991184;28;20038;-71
2022/06/18 11:22:58;;;;;;;15.45;6.88;;;24.30;55.90;;;;;;4993008;28;20100;-72
2022/06/18 11:25:29;;;;;;;14.05;7.05;;;24.20;56.10;;;;;;5011165;28;20495;-70
2022/06/18 11:28:12;;;;;;;13.27;6.03;;;24.10;56.00;;;;;;4993015;28;20489;-71
2022/06/18 11:30:44;;;;;;;16.08;7.03;;;24.10;55.80;;;;;;5010118;28;20076;-70
2022/06/18 11:33:50;;;;;;;17.17;6.13;;;24.10;55.90;;;;;;5010776;28;20034;-69
2022/06/18 11:36:19;;;;;;;16.65;8.20;;;24.10;54.50;;;;;;4993651;28;20446;-70
2022/06/18 11:38:57;;;;;;;18.60;9.90;;;24.30;54.40;;;;;;5008465;28;20105;-70
2022/06/18 11:41:38;;;;;;;19.38;10.02;;;24.30;53.50;;;;;;5011313;28;20120;-70
2022/06/18 11:44:16;;;;;;;18.98;8.68;;;24.30;53.70;;;;;;5011974;28;20418;-70
2022/06/18 11:47:08;;;;;;;18.42;7.75;;;24.20;54.50;;;;;;5014385;28;20034;-71
2022/06/18 11:49:41;;;;;;;15.90;6.97;;;24.20;55.20;;;;;;5007690;28;20038;-70
2022/06/18 11:52:23;;;;;;;17.83;8.20;;;24.10;55.50;;;;;;4993776;28;20490;-70
2022/06/18 11:55:02;;;;;;;17.50;7.85;;;24.10;55.80;;;;;;5022675;28;20117;-70
2022/06/18 11:57:38;;;;;;;18.88;7.88;;;24.10;56.00;;;;;;4958013;28;20041;-70
2022/06/18 12:00:13;;;;;;;18.27;8.07;;;24.10;56.20;;;;;;5006917;28;20049;-71
2022/06/18 12:03:09;;;;;;;21.20;6.53;;;24.10;56.10;;;;;;5010696;28;20116;-71
2022/06/18 12:05:52;;;;;;;13.88;5.65;;;24.20;54.50;;;;;;5010808;28;20025;-71
2022/06/18 12:08:20;;;;;;;16.23;6.18;;;24.30;52.90;;;;;;5007853;28;20026;-71
2022/06/18 12:10:56;;;;;;;21.80;5.57;;;24.50;52.60;;;;;;5011174;28;20491;-71
2022/06/18 12:13:28;;;;;;;14.75;5.00;;;24.60;51.90;;;;;;5011156;28;20034;-71
2022/06/18 12:16:13;;;;;;;13.32;4.38;;;24.70;51.60;;;;;;5010979;28;20042;-72
2022/06/18 12:19:25;;;;;;;14.52;4.60;;;24.70;50.90;;;;;;5009511;28;20064;-73
2022/06/18 12:22:17;;;;;;;14.60;5.10;;;24.80;51.30;;;;;;4958508;28;20443;-71
2022/06/18 12:24:55;;;;;;;13.38;5.00;;;24.80;52.20;;;;;;5000247;28;20030;-70
2022/06/18 12:27:28;;;;;;;15.65;4.20;;;24.70;52.10;;;;;;5007899;28;20598;-70
2022/06/18 12:30:08;;;;;;;13.40;4.35;;;24.70;52.30;;;;;;5009592;28;20026;-70
2022/06/18 12:32:45;;;;;;;12.68;4.30;;;24.60;52.30;;;;;;5009723;28;20040;-70
2022/06/18 12:35:11;;;;;;;13.40;4.47;;;24.50;52.50;;;;;;5009185;28;20040;-71
2022/06/18 12:37:54;;;;;;;14.43;3.85;;;24.40;53.00;;;;;;5013482;28;20038;-71
2022/06/18 12:41:04;;;;;;;14.30;4.25;;;24.30;53.10;;;;;;5013425;28;20057;-71
2022/06/18 12:43:45;;;;;;;13.93;4.10;;;24.20;53.50;;;;;;4918106;29;20035;-71
2022/06/18 12:46:21;;;;;;;12.20;3.85;;;24.20;53.80;;;;;;4918545;29;20476;-71
2022/06/18 12:49:01;;;;;;;12.30;3.80;;;24.20;54.30;;;;;;4978260;28;20100;-71
2022/06/18 12:51:31;;;;;;;;;;;24.20;54.30;;;;;;5007517;28;20033;-70
2022/06/18 12:54:05;;;;;;;10.63;4.30;;;24.20;54.70;;;;;;5009100;28;19932;-71
2022/06/18 12:56:49;;;;;;;12.55;4.05;;;24.20;54.60;;;;;;4996538;28;20475;-72
2022/06/18 12:59:21;;;;;;;18.73;4.13;;;24.20;54.60;;;;;;5010667;28;20026;-71
2022/06/18 13:02:15;;;;;;;20.58;4.07;;;24.20;54.90;;;;;;5013776;28;20038;-68
2022/06/18 13:05:22;;;;;;;13.50;4.00;;;24.30;54.30;;;;;;4995924;23;20130;-75
2022/06/18 13:08:18;;;;;;;12.32;3.90;;;24.30;54.40;;;;;;4970488;28;20038;-76
2022/06/18 13:10:58;;;;;;;15.15;4.45;;;24.30;54.80;;;;;;4972545;28;20106;-75
2022/06/18 13:13:39;;;;;;;12.77;3.80;;;24.30;54.80;;;;;;4970726;28;20069;-75
2022/06/18 13:16:15;;;;;;;14.48;3.85;;;24.20;55.10;;;;;;4972618;28;20114;-72
2022/06/18 13:18:52;;;;;;;15.18;3.97;;;24.20;55.30;;;;;;4970413;28;20114;-74
2022/06/18 13:21:18;;;;;;;14.73;4.20;;;24.30;55.00;;;;;;4964013;28;20027;-74
2022/06/18 13:29:35;;;;;;;11.18;3.85;;;24.30;54.30;;;;;;4969228;28;20031;-75
2022/06/18 13:32:22;;;;;;;16.88;4.70;;;24.30;54.50;;;;;;4970867;28;20022;-74
2022/06/18 13:35:00;;;;;;;15.82;4.40;;;24.30;54.70;;;;;;4970221;28;20050;-75
2022/06/18 13:37:47;;;;;;;14.07;3.72;;;24.30;54.90;;;;;;4965858;28;20066;-74